Time;durP1;ratioP1;P1;durP2;ratioP2;P2;SDS_P1;SDS_P2;PMS_P1;PMS_P2;Temp;Humidity;BMP_temperature;BMP_pressure;BME280_temperature;BME280_humidity;BME280_pressure;Samples;Min_cycle;Max_cycle;Signal;HPM_P1;HPM_P2
2022/04/21 00:00:55;;;;;;;8.43;6.72;;;;;;;16.50;36.25;92766.53;4993362;28;20060;-83
2022/04/21 00:03:20;;;;;;;9.57;6.18;;;;;;;16.49;36.00;92763.06;5026376;28;20111;-83
2022/04/21 00:05:46;;;;;;;9.55;6.80;;;;;;;16.50;35.86;92761.81;5009918;28;20391;-84
2022/04/21 00:08:15;;;;;;;12.05;6.47;;;;;;;16.48;35.91;92758.84;4992715;28;20506;-84
2022/04/21 00:10:40;;;;;;;10.32;6.43;;;;;;;16.48;36.25;92766.31;4994867;28;20041;-84
2022/04/21 00:13:07;;;;;;;8.75;6.90;;;;;;;16.51;36.20;92765.28;4992843;28;20040;-84
2022/04/21 00:15:32;;;;;;;9.50;6.60;;;;;;;16.46;36.08;92767.56;5026455;28;20053;-83
2022/04/21 00:17:58;;;;;;;9.57;6.88;;;;;;;16.48;35.83;92769.03;5026391;28;20033;-84
2022/04/21 00:20:24;;;;;;;7.82;6.07;;;;;;;16.46;36.09;92772.28;5026234;28;20038;-83
2022/04/21 00:25:33;;;;;;;9.50;6.95;;;;;;;16.48;35.94;92767.03;5012280;28;20056;-83
2022/04/21 00:27:58;;;;;;;7.78;6.30;;;;;;;16.48;36.11;92763.56;5026270;28;20415;-83
2022/04/21 00:30:24;;;;;;;7.97;5.90;;;;;;;16.47;36.13;92757.38;5009093;28;20487;-84
2022/04/21 00:32:49;;;;;;;8.93;6.10;;;;;;;16.48;35.82;92763.56;5026452;28;20045;-84
2022/04/21 00:35:16;;;;;;;9.07;5.88;;;;;;;16.44;36.16;92761.91;5009931;28;20518;-84
2022/04/21 00:37:51;;;;;;;7.68;6.18;;;;;;;16.47;35.88;92751.91;5012970;28;20041;-84
2022/04/21 00:40:18;;;;;;;7.85;5.93;;;;;;;16.44;35.89;92758.44;5046830;28;20029;-84
2022/04/21 00:42:44;;;;;;;9.55;6.63;;;;;;;16.44;36.35;92756.44;5029374;28;20260;-83
2022/04/21 00:45:09;;;;;;;8.10;5.70;;;;;;;16.45;36.39;92759.91;5029226;28;20045;-84
2022/04/21 00:47:40;;;;;;;10.55;6.00;;;;;;;16.44;36.04;92759.16;5028677;28;20064;-83
2022/04/21 00:50:06;;;;;;;9.10;6.05;;;;;;;16.45;35.99;92755.16;4997647;28;20064;-84
2022/04/21 00:52:32;;;;;;;6.55;5.68;;;;;;;16.42;36.18;92750.75;5013689;28;20045;-84
2022/04/21 00:54:57;;;;;;;7.53;5.70;;;;;;;16.44;36.11;92752.97;5029538;28;20041;-83
2022/04/21 00:57:22;;;;;;;7.53;5.65;;;;;;;16.43;35.52;92754.97;5012911;28;20041;-83
2022/04/21 00:59:48;;;;;;;8.65;5.65;;;;;;;16.48;35.72;92753.41;5032880;28;20049;-84
2022/04/21 01:05:11;;;;;;;7.13;5.90;;;;;;;16.45;35.71;92749.72;4988212;28;20038;-84
2022/04/21 01:07:36;;;;;;;6.95;5.90;;;;;;;16.43;36.23;92743.31;4956255;28;20035;-84
2022/04/21 01:10:02;;;;;;;6.97;5.72;;;;;;;16.43;35.88;92737.84;4972663;28;20030;-84
2022/04/21 01:12:28;;;;;;;7.90;5.85;;;;;;;16.43;36.23;92746.03;4971588;28;20042;-84
2022/04/21 01:14:53;;;;;;;8.55;5.60;;;;;;;16.43;36.16;92748.78;4972800;28;20031;-83
2022/04/21 01:17:30;;;;;;;7.75;5.53;;;;;;;16.42;35.90;92742.56;4968420;28;20053;-84
2022/04/21 01:19:55;;;;;;;7.70;5.25;;;;;;;16.42;35.97;92741.84;4953774;28;20069;-83
2022/04/21 01:22:20;;;;;;;7.05;5.47;;;;;;;16.42;35.88;92744.56;4968048;28;20038;-83
2022/04/21 01:24:46;;;;;;;9.27;6.13;;;;;;;16.41;36.10;92741.09;4972093;28;20401;-84
2022/04/21 01:27:11;;;;;;;7.18;5.30;;;;;;;16.40;36.00;92739.63;4955923;28;20042;-83
2022/04/21 01:29:37;;;;;;;7.10;5.20;;;;;;;16.42;36.08;92741.84;4971974;28;20047;-84
2022/04/21 01:32:02;;;;;;;7.65;5.32;;;;;;;16.42;36.04;92730.94;4971371;28;20038;-83
2022/04/21 01:34:28;;;;;;;6.75;5.78;;;;;;;16.42;35.94;92737.13;4971703;28;20061;-83
2022/04/21 01:42:21;;;;;;;7.38;5.57;;;;;;;16.40;35.79;92723.25;5034566;28;20044;-83
2022/04/21 01:44:46;;;;;;;6.35;5.25;;;;;;;16.40;36.03;92730.69;5015818;28;20037;-83
2022/04/21 01:47:12;;;;;;;9.25;5.60;;;;;;;16.40;35.93;92723.25;5031641;28;20043;-84
2022/04/21 01:49:37;;;;;;;8.07;5.57;;;;;;;16.40;36.37;92720.53;5014926;28;20044;-84
2022/04/21 01:52:03;;;;;;;7.75;5.60;;;;;;;16.39;36.13;92721.78;5031738;28;20075;-84
2022/04/21 01:54:28;;;;;;;7.45;6.43;;;;;;;16.39;35.66;92713.59;5032000;28;20060;-83
2022/04/21 01:56:54;;;;;;;6.97;5.20;;;;;;;16.38;35.94;92717.56;5048723;28;20041;-83
2022/04/21 01:59:19;;;;;;;7.75;6.20;;;;;;;16.39;35.86;92707.41;5046671;28;20422;-83
2022/04/21 02:01:45;;;;;;;7.75;5.50;;;;;;;16.39;35.75;92708.13;5031470;28;20049;-84
2022/04/21 02:04:10;;;;;;;7.30;5.72;;;;;;;16.40;36.00;92708.88;5031422;28;20040;-84
2022/04/21 02:06:35;;;;;;;7.13;5.63;;;;;;;16.38;35.86;92706.66;5031326;28;20522;-83
2022/04/21 02:09:01;;;;;;;8.05;5.32;;;;;;;16.36;36.03;92703.72;5048391;28;20029;-83
2022/04/21 02:11:28;;;;;;;7.70;6.57;;;;;;;16.39;36.08;92699.94;5028687;28;20037;-83
2022/04/21 02:13:53;;;;;;;8.15;5.55;;;;;;;16.39;36.09;92707.41;5011473;28;20053;-83
2022/04/21 02:16:18;;;;;;;8.38;5.68;;;;;;;16.38;36.20;92698.47;5027830;28;20049;-83
2022/04/21 02:18:44;;;;;;;7.97;5.60;;;;;;;16.38;36.07;92695.75;5012031;28;20057;-84
2022/04/21 02:21:09;;;;;;;7.10;5.43;;;;;;;16.39;35.92;92702.69;4997872;28;20080;-83
2022/04/21 02:23:34;;;;;;;7.90;5.65;;;;;;;16.37;36.01;92699.00;5011543;28;20034;-84
2022/04/21 02:26:00;;;;;;;8.50;5.85;;;;;;;16.35;35.99;92699.50;5013390;28;20042;-84
2022/04/21 02:28:25;;;;;;;7.20;5.22;;;;;;;16.37;36.17;92696.25;5043971;28;20037;-83
2022/04/21 02:30:51;;;;;;;6.93;5.45;;;;;;;16.36;35.91;92687.34;5028019;28;20037;-83
2022/04/21 02:33:16;;;;;;;7.30;5.50;;;;;;;16.36;35.84;92684.63;5044047;28;20472;-84
2022/04/21 02:35:42;;;;;;;7.28;5.85;;;;;;;16.35;35.73;92691.31;5027840;28;20407;-83
2022/04/21 02:38:08;;;;;;;6.65;5.38;;;;;;;16.35;36.40;92693.31;5027618;28;20103;-84
2022/04/21 02:40:33;;;;;;;7.28;5.55;;;;;;;16.33;36.03;92690.34;5031218;28;20037;-84
2022/04/21 02:42:58;;;;;;;7.60;5.30;;;;;;;16.35;36.07;92683.13;5014598;28;20475;-84
2022/04/21 02:45:24;;;;;;;7.30;4.80;;;;;;;16.34;35.98;92680.91;5030189;28;20029;-83
2022/04/21 02:47:49;;;;;;;6.50;4.95;;;;;;;16.35;36.04;92682.41;5014576;28;20049;-83
2022/04/21 02:50:16;;;;;;;6.05;5.30;;;;;;;16.35;35.95;92679.66;5013539;28;20491;-84
2022/04/21 02:52:41;;;;;;;5.38;4.63;;;;;;;16.34;36.08;92681.66;5014552;28;20061;-84
2022/04/21 02:57:51;;;;;;;7.28;4.72;;;;;;;16.33;36.05;92680.19;5047407;28;20416;-84
2022/04/21 03:00:16;;;;;;;7.07;5.22;;;;;;;16.34;36.16;92672.75;5029475;28;20041;-83
2022/04/21 03:02:42;;;;;;;6.88;5.40;;;;;;;16.32;35.86;92686.88;5030824;28;20041;-83
2022/04/21 03:05:08;;;;;;;7.47;5.97;;;;;;;16.32;36.14;92670.53;5048221;28;20041;-84
2022/04/21 03:07:34;;;;;;;7.68;5.88;;;;;;;16.32;36.04;92667.06;5030826;28;20349;-84
2022/04/21 03:09:59;;;;;;;6.82;5.60;;;;;;;16.34;35.95;92667.28;5030212;28;20842;-84
2022/04/21 03:12:26;;;;;;;8.80;5.40;;;;;;;16.33;36.00;92672.00;5028510;28;20813;-83
2022/04/21 03:14:52;;;;;;;7.70;5.75;;;;;;;16.33;35.93;92666.53;5030660;28;20495;-84
2022/04/21 03:17:17;;;;;;;5.80;5.18;;;;;;;16.34;35.75;92668.03;5029660;28;20041;-84
2022/04/21 03:19:43;;;;;;;8.75;5.43;;;;;;;16.33;35.77;92669.28;5030539;28;20037;-83
2022/04/21 03:24:58;;;;;;;6.85;5.80;;;;;;;16.34;35.99;92654.38;5032347;28;20089;-84
2022/04/21 03:27:26;;;;;;;6.45;5.50;;;;;;;16.32;36.15;92656.16;5030552;28;20041;-84
2022/04/21 03:29:52;;;;;;;7.72;5.40;;;;;;;16.31;35.88;92658.13;5030450;28;20044;-84
2022/04/21 03:32:17;;;;;;;6.88;5.28;;;;;;;16.31;35.95;92651.94;5007762;28;20030;-83
2022/04/21 03:34:43;;;;;;;7.70;5.13;;;;;;;16.32;36.12;92656.88;5010347;28;20068;-83
2022/04/21 03:37:13;;;;;;;6.55;5.10;;;;;;;16.32;36.02;92648.69;5013170;28;20041;-84
2022/04/21 03:39:41;;;;;;;6.22;5.07;;;;;;;16.34;36.06;92656.38;5023047;28;20067;-83
2022/04/21 03:42:08;;;;;;;5.50;4.47;;;;;;;16.35;36.60;92650.41;5047178;28;20037;-83
2022/04/21 03:44:34;;;;;;;10.43;6.05;;;;;;;16.32;36.08;92650.69;5030293;28;20052;-83
2022/04/21 03:46:59;;;;;;;11.90;5.88;;;;;;;16.32;36.13;92647.97;5046747;28;20045;-84
2022/04/21 03:49:28;;;;;;;7.53;5.07;;;;;;;16.34;36.00;92650.91;5029235;28;20032;-84
2022/04/21 03:51:55;;;;;;;7.50;5.35;;;;;;;16.33;36.09;92652.91;5029300;28;20171;-83
2022/04/21 03:54:20;;;;;;;7.60;5.53;;;;;;;16.36;35.74;92653.88;5029950;28;20030;-84
2022/04/21 03:56:46;;;;;;;7.70;5.70;;;;;;;16.33;36.19;92649.44;5029825;28;20084;-83
2022/04/21 03:59:11;;;;;;;9.10;5.57;;;;;;;16.33;35.92;92649.44;5046167;28;20033;-83
2022/04/21 04:01:36;;;;;;;13.82;10.90;;;;;;;16.25;34.83;92648.53;5029106;28;20044;-83
2022/04/21 04:04:02;;;;;;;20.17;13.20;;;;;;;16.17;34.50;92650.41;5045956;28;20045;-83
2022/04/21 04:11:55;;;;;;;30.48;16.80;;;;;;;16.19;34.62;92658.81;5027029;28;20040;-83
2022/04/21 04:14:21;;;;;;;36.72;17.55;;;;;;;16.15;34.59;92664.53;5021738;28;20649;-83
2022/04/21 04:16:46;;;;;;;43.28;19.02;;;;;;;16.13;35.02;92664.31;5007236;28;20033;-83
2022/04/21 04:19:12;;;;;;;47.47;21.38;;;;;;;16.14;34.66;92656.88;5042115;28;20419;-84
2022/04/21 04:21:38;;;;;;;42.97;23.33;;;;;;;16.15;34.68;92656.34;5010237;28;20041;-83
2022/04/21 04:24:03;;;;;;;49.25;22.23;;;;;;;16.16;35.28;92662.56;5015201;28;20114;-84
2022/04/21 04:26:30;;;;;;;40.72;24.27;;;;;;;16.20;35.27;92654.81;5016642;28;20080;-84
2022/04/21 04:28:55;;;;;;;75.10;30.75;;;;;;;16.17;35.22;92662.03;5029417;28;20560;-85
2022/04/21 04:31:20;;;;;;;55.97;26.50;;;;;;;16.22;35.71;92660.50;5013315;28;20041;-83
2022/04/21 04:33:46;;;;;;;59.90;33.30;;;;;;;16.25;35.92;92654.72;5031356;28;20048;-86
2022/04/21 04:36:15;;;;;;;121.57;42.63;;;;;;;16.28;36.47;92650.25;5019274;28;20045;-88
2022/04/21 04:38:41;;;;;;;128.52;52.17;;;;;;;16.32;36.01;92659.63;5023778;28;20037;-87
2022/04/21 04:43:50;;;;;;;104.97;46.03;;;;;;;16.40;36.25;92665.97;5047520;28;20083;-89
2022/04/21 04:48:59;;;;;;;105.97;55.78;;;;;;;16.43;36.15;92658.75;5044752;28;20047;-89
2022/04/21 04:51:26;;;;;;;212.63;74.53;;;;;;;16.36;36.08;92653.88;5028481;28;20037;-83
2022/04/21 04:53:53;;;;;;;135.68;61.47;;;;;;;16.37;36.08;92663.53;5038925;28;20064;-83
2022/04/21 04:56:20;;;;;;;163.88;64.72;;;;;;;16.34;36.12;92654.38;5045869;28;20037;-84
2022/04/21 04:58:46;;;;;;;148.75;67.05;;;;;;;16.38;35.78;92660.28;5045812;28;20037;-84
2022/04/21 05:01:12;;;;;;;161.10;66.75;;;;;;;16.39;35.85;92663.75;5026892;28;20099;-84
2022/04/21 05:03:37;;;;;;;155.13;67.78;;;;;;;16.38;35.88;92656.81;5026998;28;20041;-85
2022/04/21 05:06:03;;;;;;;146.25;68.43;;;;;;;16.39;35.82;92656.31;5019597;28;20515;-84
2022/04/21 05:08:28;;;;;;;153.52;66.53;;;;;;;16.42;35.98;92658.00;4989368;28;20057;-85
2022/04/21 05:10:54;;;;;;;148.55;70.35;;;;;;;16.41;35.78;92658.53;5022739;28;20137;-83
2022/04/21 05:13:19;;;;;;;144.73;67.40;;;;;;;16.40;36.09;92659.78;5012531;28;20513;-86
2022/04/21 05:15:45;;;;;;;177.23;77.45;;;;;;;16.40;35.96;92657.06;4994789;28;20041;-85
2022/04/21 05:18:11;;;;;;;161.43;75.10;;;;;;;16.44;35.96;92655.50;5011039;28;20052;-86
2022/04/21 05:20:37;;;;;;;168.48;77.65;;;;;;;16.43;35.96;92651.31;4992937;28;20721;-85
2022/04/21 05:23:04;;;;;;;155.38;77.63;;;;;;;16.43;35.95;92656.03;5010078;28;20079;-85
2022/04/21 05:25:33;;;;;;;176.93;85.00;;;;;;;16.43;35.90;92656.75;4995568;28;20044;-85
2022/04/21 05:27:59;;;;;;;158.65;77.38;;;;;;;16.43;35.79;92659.50;4981609;28;20042;-84
2022/04/21 05:33:10;;;;;;;189.55;89.95;;;;;;;16.46;36.08;92657.69;5020211;28;20151;-84
2022/04/21 05:35:35;;;;;;;184.60;86.72;;;;;;;16.46;36.03;92663.16;4994478;28;20125;-86
2022/04/21 05:38:01;;;;;;;185.85;90.50;;;;;;;16.44;36.33;92650.06;4999301;28;20113;-86
2022/04/21 05:40:27;;;;;;;189.10;86.85;;;;;;;16.48;35.73;92655.19;5007933;28;20055;-85
2022/04/21 05:42:54;;;;;;;175.93;86.65;;;;;;;16.44;36.00;92647.31;5006192;28;20041;-85
2022/04/21 05:45:20;;;;;;;170.35;86.07;;;;;;;16.48;36.02;92654.44;4982489;28;20136;-85
2022/04/21 05:47:46;;;;;;;168.32;85.40;;;;;;;16.46;36.00;92655.69;5010355;28;20045;-86
2022/04/21 05:50:13;;;;;;;167.43;82.47;;;;;;;16.45;36.27;92662.41;5017990;28;20037;-85
2022/04/21 05:52:38;;;;;;;183.00;87.85;;;;;;;16.47;36.35;92650.97;4991681;28;20478;-87
2022/04/21 05:55:04;;;;;;;223.77;95.28;;;;;;;16.50;36.34;92646.50;4965935;28;20042;-87
2022/04/21 05:57:30;;;;;;;208.75;96.03;;;;;;;16.54;35.98;92652.41;5002331;28;20042;-85
2022/04/21 05:59:55;;;;;;;190.07;94.75;;;;;;;16.52;36.24;92652.91;5005978;28;20725;-86
2022/04/21 06:02:21;;;;;;;225.18;106.50;;;;;;;16.53;36.27;92654.38;4972325;28;20065;-83
2022/04/21 06:04:46;;;;;;;288.98;130.40;;;;;;;16.53;36.18;92651.66;4971713;28;20050;-83
2022/04/21 06:07:13;;;;;;;265.00;120.22;;;;;;;16.58;36.09;92648.13;4963829;28;20049;-83
2022/04/21 06:09:40;;;;;;;246.02;112.78;;;;;;;16.55;36.21;92654.59;4984039;28;20046;-85
2022/04/21 06:12:07;;;;;;;244.35;110.80;;;;;;;16.60;36.00;92653.81;5007689;28;20056;-86
2022/04/21 06:14:34;;;;;;;220.18;106.40;;;;;;;16.60;36.23;92653.81;5006674;28;20049;-87
2022/04/21 06:17:01;;;;;;;231.40;104.25;;;;;;;16.67;36.49;92652.50;5021284;28;20586;-89
2022/04/21 06:19:26;;;;;;;231.15;113.13;;;;;;;16.74;36.52;92652.63;5005224;28;20037;-84
2022/04/21 06:21:51;;;;;;;309.88;186.52;;;;;;;16.78;36.71;92660.53;4985669;28;20178;-81
2022/04/21 06:24:18;;;;;;;203.32;107.22;;;;;;;16.82;36.16;92660.22;5006332;28;20049;-84
2022/04/21 06:26:43;;;;;;;196.10;95.95;;;;;;;16.91;36.29;92659.81;5001444;28;20108;-85
2022/04/21 06:29:09;;;;;;;197.10;93.57;;;;;;;16.87;36.07;92662.16;5002854;28;20559;-87
2022/04/21 06:31:36;;;;;;;172.45;87.82;;;;;;;16.87;36.15;92664.88;5008687;28;20465;-85
2022/04/21 06:34:02;;;;;;;157.55;86.45;;;;;;;16.84;35.86;92661.19;5020686;28;20430;-85
2022/04/21 06:36:27;;;;;;;168.57;84.43;;;;;;;16.85;36.06;92661.94;5012481;28;20423;-84
2022/04/21 06:38:53;;;;;;;158.25;79.38;;;;;;;16.86;36.04;92658.69;5022264;28;20499;-84
2022/04/21 06:41:18;;;;;;;144.30;79.30;;;;;;;16.84;35.93;92657.72;5006536;28;20068;-84
2022/04/21 06:49:11;;;;;;;158.93;82.57;;;;;;;16.84;36.14;92653.00;5020659;28;20040;-84
2022/04/21 06:51:39;;;;;;;147.50;81.30;;;;;;;16.85;36.01;92659.19;5031296;28;20415;-84
2022/04/21 06:54:05;;;;;;;154.57;84.25;;;;;;;16.89;35.90;92656.91;5026644;28;20068;-87
2022/04/21 06:56:30;;;;;;;159.32;81.53;;;;;;;16.86;36.04;92660.66;5017811;28;20041;-86
2022/04/21 06:58:56;;;;;;;165.68;85.07;;;;;;;16.91;35.98;92662.56;5027395;28;20065;-86
2022/04/21 07:01:22;;;;;;;156.77;84.80;;;;;;;16.90;35.95;92661.81;5009739;28;20121;-88
2022/04/21 07:03:47;;;;;;;173.75;88.05;;;;;;;16.94;36.16;92654.06;5027216;28;20179;-84
2022/04/21 07:06:13;;;;;;;155.52;86.80;;;;;;;16.94;36.33;92653.34;5014174;28;20050;-88
2022/04/21 07:08:38;;;;;;;159.15;82.25;;;;;;;16.92;36.31;92653.13;5020597;28;20042;-86
2022/04/21 07:11:04;;;;;;;154.40;79.20;;;;;;;16.95;36.33;92646.63;5005007;28;20507;-88
2022/04/21 07:13:29;;;;;;;157.85;81.43;;;;;;;16.95;36.33;92654.81;5001373;28;20641;-89
2022/04/21 07:15:55;;;;;;;150.45;82.85;;;;;;;16.94;36.24;92645.88;5004672;28;20479;-89
2022/04/21 07:18:21;;;;;;;152.93;84.32;;;;;;;16.97;36.24;92647.56;5010297;28;20036;-87
2022/04/21 07:20:47;;;;;;;166.77;86.30;;;;;;;16.99;36.18;92647.78;5013196;28;20552;-86
2022/04/21 07:23:12;;;;;;;169.15;89.43;;;;;;;16.99;35.86;92649.78;5011765;28;20123;-87
2022/04/21 07:25:42;;;;;;;172.45;90.38;;;;;;;16.97;36.16;92655.03;5012375;28;20052;-85
2022/04/21 07:28:07;;;;;;;175.38;89.13;;;;;;;16.98;36.49;92648.31;5014778;28;20041;-90
2022/04/21 07:30:33;;;;;;;183.75;91.65;;;;;;;16.98;36.29;92642.84;4996928;28;20044;-85
2022/04/21 07:32:58;;;;;;;196.50;97.10;;;;;;;16.99;36.16;92649.78;4998942;28;20454;-88
2022/04/21 07:35:24;;;;;;;213.80;99.53;;;;;;;17.00;36.28;92651.25;5011373;28;20041;-86
2022/04/21 07:37:50;;;;;;;226.90;102.55;;;;;;;16.97;36.48;92644.09;5026590;28;20048;-87
2022/04/21 07:40:16;;;;;;;197.77;102.00;;;;;;;17.03;36.40;92652.97;5007596;28;20086;-88
2022/04/21 07:42:44;;;;;;;231.13;110.32;;;;;;;17.01;36.35;92644.53;5010241;28;20041;-85
2022/04/21 07:45:09;;;;;;;224.43;109.97;;;;;;;17.01;36.31;92650.75;5006413;28;20041;-87
2022/04/21 07:47:35;;;;;;;257.30;124.45;;;;;;;17.04;35.96;92644.25;5008243;28;20283;-88
2022/04/21 07:50:01;;;;;;;163.48;83.75;;;;;;;16.97;35.43;92644.09;5004573;28;20538;-86
2022/04/21 07:55:23;;;;;;;113.35;57.05;;;;;;;16.92;34.70;92655.84;5012787;28;20045;-86
2022/04/21 07:57:48;;;;;;;114.72;56.28;;;;;;;16.89;34.57;92652.16;5024741;28;20120;-87
2022/04/21 08:00:17;;;;;;;94.00;47.80;;;;;;;16.84;34.78;92646.81;4991951;28;20395;-86
2022/04/21 08:02:44;;;;;;;83.63;43.10;;;;;;;16.82;34.28;92652.03;4987238;28;20042;-86
2022/04/21 08:05:10;;;;;;;107.13;48.35;;;;;;;16.77;34.44;92648.88;4969516;28;20124;-85
2022/04/21 08:07:36;;;;;;;97.07;50.40;;;;;;;16.79;34.22;92640.91;4980268;28;20050;-88
2022/04/21 08:10:05;;;;;;;89.55;43.95;;;;;;;16.74;34.31;92646.44;4965432;28;20041;-87
2022/04/21 08:12:39;;;;;;;84.03;42.15;;;;;;;16.75;34.05;92642.44;4989944;28;20751;-87
2022/04/21 08:15:07;;;;;;;83.95;40.30;;;;;;;16.79;34.25;92642.88;5006719;28;20037;-84
2022/04/21 08:17:33;;;;;;;111.03;44.33;;;;;;;16.78;34.29;92647.59;4989145;28;20054;-88
2022/04/21 08:19:58;;;;;;;100.93;43.38;;;;;;;16.77;34.26;92648.13;4984062;28;20077;-85
2022/04/21 08:22:24;;;;;;;96.30;45.15;;;;;;;16.75;34.54;92645.19;4987101;28;20048;-88
2022/04/21 08:33:04;;;;;;;91.85;46.50;;;;;;;16.77;34.12;92632.50;4983819;28;20519;-86
2022/04/21 08:35:29;;;;;;;88.28;43.38;;;;;;;16.77;34.28;92632.50;5039237;28;20045;-87
2022/04/21 08:37:54;;;;;;;81.47;40.88;;;;;;;16.79;33.96;92640.16;5046277;28;20602;-85
2022/04/21 08:40:22;;;;;;;92.22;43.90;;;;;;;16.74;34.26;92644.44;5022870;28;20499;-86
2022/04/21 08:42:52;;;;;;;94.75;37.55;;;;;;;16.76;34.30;92641.19;5027027;28;20042;-86
2022/04/21 08:45:18;;;;;;;78.25;39.33;;;;;;;16.76;33.75;92644.66;5016886;28;20033;-88
2022/04/21 08:47:46;;;;;;;78.53;41.15;;;;;;;16.76;33.96;92649.38;4999410;28;20398;-86
2022/04/21 08:50:12;;;;;;;91.70;43.78;;;;;;;16.78;33.68;92644.88;5029219;28;20090;-88
2022/04/21 08:52:39;;;;;;;83.85;41.22;;;;;;;16.80;33.79;92644.38;5007125;28;20037;-86
2022/04/21 08:55:05;;;;;;;69.75;35.47;;;;;;;16.79;33.61;92640.16;5014343;28;20037;-87
2022/04/21 08:57:31;;;;;;;63.33;32.47;;;;;;;16.76;33.52;92633.00;5026888;28;20315;-89
2022/04/21 08:59:58;;;;;;;71.70;31.40;;;;;;;16.77;33.90;92635.22;5022408;28;20056;-84
2022/04/21 09:02:33;;;;;;;66.97;29.90;;;;;;;16.82;33.53;92635.66;5033662;28;20041;-86
2022/04/21 09:04:58;;;;;;;65.80;30.05;;;;;;;16.76;33.51;92630.28;5028838;28;20487;-86
2022/04/21 09:07:24;;;;;;;59.80;30.45;;;;;;;16.79;33.61;92624.53;5007794;28;20124;-86
2022/04/21 09:09:59;;;;;;;57.55;29.25;;;;;;;16.78;33.52;92635.97;5048827;28;20041;-85
2022/04/21 09:12:25;;;;;;;58.40;28.05;;;;;;;16.82;33.24;92639.13;5030602;28;20048;-86
2022/04/21 09:14:51;;;;;;;62.08;30.90;;;;;;;16.77;33.03;92637.22;5030919;28;20055;-84
2022/04/21 09:17:16;;;;;;;44.90;24.48;;;;;;;16.77;32.14;92626.28;5016218;28;20494;-88
2022/04/21 09:19:58;;;;;;;60.42;25.17;;;;;;;16.76;32.27;92635.72;5011609;28;20067;-85
2022/04/21 09:22:23;;;;;;;66.45;28.55;;;;;;;16.80;32.13;92633.44;5025682;28;20858;-86
2022/04/21 09:24:52;;;;;;;88.35;32.80;;;;;;;16.79;32.61;92629.97;5031943;28;20041;-86
2022/04/21 09:27:17;;;;;;;85.93;31.20;;;;;;;16.81;32.19;92632.19;5039702;28;20029;-84
2022/04/21 09:29:43;;;;;;;77.82;36.58;;;;;;;16.85;32.72;92629.16;5008835;28;20098;-89
2022/04/21 09:32:08;;;;;;;107.57;47.15;;;;;;;16.90;32.95;92626.34;5014026;28;20037;-88
2022/04/21 09:34:35;;;;;;;124.53;53.40;;;;;;;16.91;33.00;92625.06;5033556;28;20490;-86
2022/04/21 09:37:01;;;;;;;122.65;53.83;;;;;;;16.90;33.14;92623.59;5032596;28;20055;-86
2022/04/21 09:39:29;;;;;;;117.10;56.53;;;;;;;16.91;33.20;92611.44;5011547;28;20033;-86
2022/04/21 09:41:54;;;;;;;128.68;63.00;;;;;;;16.92;33.49;92618.34;5025955;28;20051;-90
2022/04/21 09:47:05;;;;;;;143.75;62.88;;;;;;;16.95;33.42;92613.84;5036655;28;20636;-85
2022/04/21 09:49:38;;;;;;;133.23;65.95;;;;;;;16.96;33.91;92610.63;5021997;28;20052;-86
2022/04/21 09:52:06;;;;;;;206.80;70.90;;;;;;;16.98;34.02;92618.28;5019619;28;20160;-87
2022/04/21 09:54:31;;;;;;;160.38;65.20;;;;;;;17.00;34.14;92615.78;5017284;28;20130;-87
2022/04/21 09:56:58;;;;;;;168.05;73.75;;;;;;;17.00;33.75;92621.97;5013055;28;20037;-87
2022/04/21 09:59:23;;;;;;;175.63;73.43;;;;;;;16.99;33.83;92609.56;5028138;28;20556;-87
2022/04/21 10:01:50;;;;;;;132.38;59.78;;;;;;;17.00;34.38;92607.56;5008486;28;20112;-86
2022/04/21 10:04:18;;;;;;;127.65;58.75;;;;;;;17.02;34.25;92611.25;5024698;28;20123;-86
2022/04/21 10:06:44;;;;;;;138.45;62.85;;;;;;;17.00;34.05;92608.31;5045409;28;20037;-86
2022/04/21 10:09:10;;;;;;;125.43;61.20;;;;;;;17.02;34.02;92607.78;5013740;28;20099;-86
2022/04/21 10:11:38;;;;;;;121.80;58.67;;;;;;;17.05;33.75;92598.56;5008772;28;20091;-87
2022/04/21 10:14:04;;;;;;;127.60;59.17;;;;;;;17.05;34.04;92601.28;5031242;28;20025;-86
2022/04/21 10:16:30;;;;;;;126.38;58.50;;;;;;;17.04;34.04;92591.63;5009781;28;20058;-85
2022/04/21 10:18:57;;;;;;;116.88;58.00;;;;;;;17.04;34.13;92600.56;4996919;28;20044;-87
2022/04/21 10:21:34;;;;;;;104.00;52.35;;;;;;;17.02;34.44;92597.63;5017726;28;20056;-86
2022/04/21 10:23:59;;;;;;;102.43;52.53;;;;;;;17.05;34.45;92601.28;5026697;28;20522;-86
2022/04/21 10:26:35;;;;;;;98.07;50.67;;;;;;;17.05;34.39;92601.28;5046507;28;20033;-86
2022/04/21 10:29:10;;;;;;;93.65;48.95;;;;;;;17.06;34.16;92589.13;5045560;28;20147;-87
2022/04/21 10:31:45;;;;;;;79.40;45.78;;;;;;;17.08;34.35;92597.53;5000212;28;20045;-86
2022/04/21 10:34:10;;;;;;;88.80;46.17;;;;;;;17.08;34.24;92589.34;5041353;28;20044;-87
2022/04/21 10:36:42;;;;;;;85.45;44.88;;;;;;;17.05;34.31;92579.44;5010709;28;20053;-89
2022/04/21 10:39:22;;;;;;;85.75;43.53;;;;;;;17.10;34.30;92581.38;5031075;28;20087;-87
2022/04/21 10:41:47;;;;;;;81.28;47.50;;;;;;;17.08;34.80;92581.88;5015553;28;20048;-86
2022/04/21 10:44:16;;;;;;;128.93;76.35;;;;;;;17.10;34.56;92584.09;5009905;28;20103;-88
2022/04/21 10:46:42;;;;;;;66.03;39.65;;;;;;;17.11;34.66;92580.06;5010043;28;20110;-87
2022/04/21 10:49:09;;;;;;;71.82;42.10;;;;;;;17.13;34.09;92583.75;5019588;28;20025;-88
2022/04/21 10:57:12;;;;;;;70.85;39.75;;;;;;;17.10;34.66;92573.88;5019561;28;20041;-88
2022/04/21 10:57:16;;;;;;;69.97;40.10;;;;;;;17.12;34.79;92565.16;5012416;28;20091;-88
2022/04/21 10:59:48;;;;;;;68.95;36.70;;;;;;;17.12;34.40;92568.63;5010697;28;20045;-88
2022/04/21 11:02:14;;;;;;;84.70;44.03;;;;;;;17.12;34.72;92563.16;5026753;28;20038;-88
2022/04/21 11:04:39;;;;;;;114.65;52.35;;;;;;;17.12;34.73;92563.16;5026555;28;20049;-88
2022/04/21 11:07:11;;;;;;;136.00;52.38;;;;;;;17.13;34.81;92563.91;5010537;28;20040;-88
2022/04/21 11:09:39;;;;;;;102.07;52.05;;;;;;;17.14;34.60;92566.13;5011760;28;20041;-88
2022/04/21 11:12:06;;;;;;;110.68;52.55;;;;;;;17.14;34.65;92566.13;5010610;28;20049;-89
2022/04/21 11:14:33;;;;;;;106.32;52.40;;;;;;;17.14;34.72;92562.66;5011925;28;20411;-87
2022/04/21 11:16:59;;;;;;;97.38;54.55;;;;;;;17.14;34.87;92557.94;5025253;28;20029;-87
2022/04/21 11:19:31;;;;;;;127.85;66.80;;;;;;;17.11;34.85;92558.22;5030212;28;20559;-87
2022/04/21 11:22:00;;;;;;;104.25;54.25;;;;;;;17.11;34.11;92560.97;5034720;28;20045;-87
2022/04/21 11:24:25;;;;;;;112.97;55.70;;;;;;;17.09;34.68;92558.78;5026277;28;20041;-89
2022/04/21 11:27:00;;;;;;;130.50;56.35;;;;;;;17.09;34.67;92564.25;5026918;28;20072;-87
2022/04/21 11:29:26;;;;;;;143.15;68.85;;;;;;;17.09;34.58;92560.78;5043604;28;20052;-87
2022/04/21 11:31:55;;;;;;;122.30;64.43;;;;;;;17.06;34.10;92551.63;5046554;28;20479;-87
2022/04/21 11:34:24;;;;;;;118.88;60.20;;;;;;;17.06;34.12;92553.63;5009891;28;20068;-87
2022/04/21 11:36:53;;;;;;;114.00;61.35;;;;;;;17.08;34.38;92553.84;5010853;28;20095;-87
2022/04/21 11:39:19;;;;;;;146.45;67.85;;;;;;;17.12;34.42;92563.16;5011167;28;20479;-87
2022/04/21 11:41:45;;;;;;;140.10;70.82;;;;;;;17.12;34.17;92554.25;5025913;28;20057;-87
2022/04/21 11:44:10;;;;;;;175.43;80.80;;;;;;;17.09;34.41;92558.03;5009658;28;20041;-86
2022/04/21 11:46:37;;;;;;;151.82;80.10;;;;;;;17.10;34.18;92557.50;4994247;28;20041;-87
2022/04/21 11:49:03;;;;;;;160.02;79.00;;;;;;;17.10;34.34;92559.50;4994343;28;20399;-87
2022/04/21 11:51:29;;;;;;;145.95;78.95;;;;;;;17.09;34.73;92558.03;5011367;28;20034;-87
2022/04/21 11:53:56;;;;;;;172.68;89.85;;;;;;;17.09;34.60;92556.06;4997341;28;20059;-86
2022/04/21 11:56:21;;;;;;;159.52;82.15;;;;;;;17.08;34.56;92556.56;5013230;28;20443;-87
2022/04/21 11:58:47;;;;;;;170.00;89.20;;;;;;;17.09;34.33;92556.06;5030712;28;20029;-87
2022/04/21 12:06:47;;;;;;;149.18;75.57;;;;;;;17.10;34.21;92545.88;5033310;28;20048;-87
2022/04/21 12:09:15;;;;;;;174.45;81.90;;;;;;;17.06;34.10;92548.16;5013115;28;20055;-86
2022/04/21 12:11:40;;;;;;;168.55;84.68;;;;;;;17.08;34.25;92540.91;5030148;28;20175;-86
2022/04/21 12:14:06;;;;;;;164.07;79.82;;;;;;;17.05;34.22;92533.03;5026792;28;20124;-87